createdAt,value
2018-08-06T00:00:08.019Z,4.828032
2018-08-06T00:00:20.564Z,6.437376
2018-08-06T00:00:33.096Z,6.437376
2018-08-06T00:00:45.665Z,3.218688
2018-08-06T00:00:58.213Z,1.609344
2018-08-06T00:01:10.740Z,1.609344
2018-08-06T00:01:23.331Z,6.437376
2018-08-06T00:01:36.057Z,3.218688
2018-08-06T00:01:48.593Z,0
2018-08-06T00:02:01.097Z,0
2018-08-06T00:02:13.614Z,1.609344
2018-08-06T00:02:26.260Z,3.218688
2018-08-06T00:02:38.768Z,3.218688
2018-08-06T00:02:51.317Z,1.609344
2018-08-06T00:03:03.842Z,1.609344
2018-08-06T00:03:16.367Z,1.609344
2018-08-06T00:03:28.935Z,0
2018-08-06T00:03:41.427Z,1.609344
2018-08-06T00:03:53.900Z,3.218688
2018-08-06T00:04:06.400Z,3.218688
2018-08-06T00:04:18.943Z,3.218688
2018-08-06T00:04:31.458Z,3.218688
2018-08-06T00:04:43.970Z,6.437376
2018-08-06T00:04:56.493Z,1.609344
2018-08-06T00:05:09.016Z,3.218688
2018-08-06T00:05:21.555Z,1.609344
2018-08-06T00:05:34.483Z,8.04672
2018-08-06T00:05:46.993Z,4.828032
2018-08-06T00:05:59.482Z,4.828032
2018-08-06T00:06:11.998Z,1.609344
2018-08-06T00:06:24.562Z,1.609344
2018-08-06T00:06:37.117Z,1.609344
2018-08-06T00:06:49.675Z,3.218688
2018-08-06T00:07:02.185Z,3.218688
2018-08-06T00:07:14.686Z,3.218688
2018-08-06T00:07:27.196Z,8.04672
2018-08-06T00:07:39.709Z,8.04672
2018-08-06T00:07:52.203Z,4.828032
2018-08-06T00:08:04.770Z,4.828032
2018-08-06T00:08:17.665Z,3.218688
2018-08-06T00:08:30.173Z,1.609344
2018-08-06T00:08:42.726Z,3.218688
2018-08-06T00:08:55.253Z,3.218688
2018-08-06T00:09:07.762Z,3.218688
2018-08-06T00:09:20.290Z,1.609344
2018-08-06T00:09:32.797Z,8.04672
2018-08-06T00:09:45.323Z,4.828032
2018-08-06T00:09:57.829Z,1.609344
2018-08-06T00:10:10.341Z,3.218688
2018-08-06T00:10:22.846Z,1.609344
2018-08-06T00:10:35.375Z,3.218688
2018-08-06T00:10:48.029Z,6.437376
2018-08-06T00:11:00.531Z,6.437376
2018-08-06T00:11:13.023Z,4.828032
2018-08-06T00:11:25.559Z,3.218688
2018-08-06T00:11:38.107Z,3.218688
2018-08-06T00:11:50.604Z,6.437376
2018-08-06T00:12:03.120Z,3.218688
2018-08-06T00:12:15.630Z,3.218688
2018-08-06T00:12:28.148Z,1.609344
2018-08-06T00:12:40.672Z,3.218688
2018-08-06T00:12:53.189Z,3.218688
2018-08-06T00:13:05.702Z,3.218688
2018-08-06T00:13:18.217Z,1.609344
2018-08-06T00:13:30.708Z,3.218688
2018-08-06T00:13:43.235Z,3.218688
2018-08-06T00:13:55.753Z,6.437376
2018-08-06T00:14:08.286Z,3.218688
2018-08-06T00:14:20.788Z,3.218688
2018-08-06T00:14:33.315Z,4.828032
2018-08-06T00:14:45.849Z,3.218688
2018-08-06T00:14:58.376Z,1.609344
2018-08-06T00:15:10.891Z,1.609344
2018-08-06T00:15:23.391Z,1.609344
2018-08-06T00:15:35.902Z,1.609344
2018-08-06T00:15:48.441Z,3.218688
2018-08-06T00:16:00.954Z,3.218688
2018-08-06T00:16:13.489Z,3.218688
2018-08-06T00:16:26.010Z,3.218688
2018-08-06T00:16:38.548Z,4.828032
2018-08-06T00:16:51.051Z,3.218688
2018-08-06T00:17:03.564Z,3.218688
2018-08-06T00:17:16.066Z,3.218688
2018-08-06T00:17:28.557Z,3.218688
2018-08-06T00:17:41.058Z,3.218688
2018-08-06T00:17:53.570Z,1.609344
2018-08-06T00:18:06.078Z,3.218688
2018-08-06T00:18:18.577Z,6.437376
2018-08-06T00:18:31.063Z,8.04672
2018-08-06T00:18:43.584Z,9.656064
2018-08-06T00:18:56.103Z,11.265408
2018-08-06T00:19:08.708Z,6.437376
2018-08-06T00:19:21.205Z,8.04672
2018-08-06T00:19:33.728Z,9.656064
2018-08-06T00:19:46.233Z,8.04672
2018-08-06T00:19:58.727Z,6.437376
2018-08-06T00:20:11.248Z,9.656064
2018-08-06T00:20:23.757Z,8.04672
2018-08-06T00:20:36.292Z,4.828032
2018-08-06T00:20:48.953Z,8.04672
2018-08-06T00:21:01.476Z,6.437376
2018-08-06T00:21:14.150Z,11.265408
2018-08-06T00:21:26.706Z,11.265408
2018-08-06T00:21:39.213Z,8.04672
2018-08-06T00:21:51.876Z,8.04672
2018-08-06T00:22:04.361Z,14.484096
2018-08-06T00:22:16.860Z,8.04672
2018-08-06T00:22:29.372Z,6.437376
2018-08-06T00:22:41.884Z,8.04672
2018-08-06T00:22:54.523Z,4.828032
2018-08-06T00:23:07.058Z,6.437376
2018-08-06T00:23:19.570Z,6.437376
2018-08-06T00:23:32.085Z,8.04672
2018-08-06T00:23:44.603Z,6.437376
2018-08-06T00:23:57.132Z,4.828032
2018-08-06T00:24:09.651Z,6.437376
2018-08-06T00:24:22.153Z,3.218688
2018-08-06T00:24:34.681Z,1.609344
2018-08-06T00:24:47.228Z,1.609344
2018-08-06T00:24:59.725Z,3.218688
2018-08-06T00:25:12.255Z,3.218688
2018-08-06T00:25:24.775Z,8.04672
2018-08-06T00:25:37.289Z,8.04672
2018-08-06T00:25:49.788Z,4.828032
2018-08-06T00:26:02.319Z,3.218688
2018-08-06T00:26:14.817Z,6.437376
2018-08-06T00:26:27.352Z,3.218688
2018-08-06T00:26:39.880Z,8.04672
2018-08-06T00:26:52.547Z,6.437376
2018-08-06T00:27:05.069Z,6.437376
2018-08-06T00:27:17.582Z,3.218688
2018-08-06T00:27:30.110Z,6.437376
2018-08-06T00:27:42.603Z,6.437376
2018-08-06T00:27:55.124Z,8.04672
2018-08-06T00:28:07.642Z,6.437376
2018-08-06T00:28:20.168Z,6.437376
2018-08-06T00:28:32.676Z,3.218688
2018-08-06T00:28:45.240Z,1.609344
2018-08-06T00:28:57.757Z,3.218688
2018-08-06T00:29:10.262Z,1.609344
2018-08-06T00:29:22.774Z,3.218688
2018-08-06T00:29:35.785Z,6.437376
2018-08-06T00:29:49.026Z,3.218688
2018-08-06T00:30:01.676Z,4.828032
2018-08-06T00:30:14.212Z,6.437376
2018-08-06T00:30:26.738Z,6.437376
2018-08-06T00:30:39.227Z,3.218688
2018-08-06T00:30:51.743Z,6.437376
2018-08-06T00:31:04.331Z,6.437376
2018-08-06T00:31:16.861Z,4.828032
2018-08-06T00:31:29.366Z,6.437376
2018-08-06T00:31:41.871Z,1.609344
2018-08-06T00:31:54.382Z,4.828032
2018-08-06T00:32:06.894Z,6.437376
2018-08-06T00:32:19.396Z,8.04672
2018-08-06T00:32:31.916Z,9.656064
2018-08-06T00:32:44.441Z,8.04672
2018-08-06T00:32:56.979Z,12.874752
2018-08-06T00:33:09.505Z,11.265408
2018-08-06T00:33:22.002Z,9.656064
2018-08-06T00:33:34.504Z,8.04672
2018-08-06T00:33:47.015Z,6.437376
2018-08-06T00:33:59.539Z,4.828032
2018-08-06T00:34:12.045Z,6.437376
2018-08-06T00:34:24.565Z,8.04672
2018-08-06T00:34:37.068Z,9.656064
2018-08-06T00:34:49.596Z,6.437376
2018-08-06T00:35:02.132Z,8.04672
2018-08-06T00:35:14.664Z,8.04672
2018-08-06T00:35:27.169Z,8.04672
2018-08-06T00:35:39.719Z,8.04672
2018-08-06T00:35:52.454Z,6.437376
2018-08-06T00:36:04.969Z,3.218688
2018-08-06T00:36:17.469Z,1.609344
2018-08-06T00:36:29.987Z,6.437376
2018-08-06T00:36:42.482Z,8.04672
2018-08-06T00:36:54.989Z,3.218688
2018-08-06T00:37:07.498Z,6.437376
2018-08-06T00:37:20.004Z,3.218688
2018-08-06T00:37:32.509Z,4.828032
2018-08-06T00:37:45.047Z,6.437376
2018-08-06T00:37:57.552Z,4.828032
2018-08-06T00:38:10.064Z,9.656064
2018-08-06T00:38:22.566Z,8.04672
2018-08-06T00:38:35.073Z,6.437376
2018-08-06T00:38:47.579Z,4.828032
2018-08-06T00:39:00.126Z,8.04672
2018-08-06T00:39:12.661Z,4.828032
2018-08-06T00:39:25.320Z,3.218688
2018-08-06T00:39:37.866Z,4.828032
2018-08-06T00:39:50.381Z,3.218688
2018-08-06T00:40:02.887Z,6.437376
2018-08-06T00:40:15.454Z,9.656064
2018-08-06T00:40:27.975Z,8.04672
2018-08-06T00:40:40.488Z,8.04672
2018-08-06T00:40:52.982Z,6.437376
2018-08-06T00:41:05.475Z,3.218688
2018-08-06T00:41:17.992Z,1.609344
2018-08-06T00:41:30.546Z,6.437376
2018-08-06T00:41:43.062Z,4.828032
2018-08-06T00:41:55.580Z,4.828032
2018-08-06T00:42:08.100Z,8.04672
2018-08-06T00:42:20.602Z,6.437376
2018-08-06T00:42:33.111Z,3.218688
2018-08-06T00:42:45.626Z,3.218688
2018-08-06T00:42:58.143Z,3.218688
2018-08-06T00:43:10.692Z,4.828032
2018-08-06T00:43:23.198Z,6.437376
2018-08-06T00:43:35.708Z,9.656064
2018-08-06T00:43:48.238Z,12.874752
2018-08-06T00:44:00.734Z,14.484096
2018-08-06T00:44:13.243Z,8.04672
2018-08-06T00:44:25.794Z,6.437376
2018-08-06T00:44:38.349Z,9.656064
2018-08-06T00:44:50.870Z,9.656064
2018-08-06T00:45:03.387Z,11.265408
2018-08-06T00:45:15.964Z,12.874752
2018-08-06T00:45:29.120Z,8.04672
2018-08-06T00:45:42.404Z,6.437376
2018-08-06T00:45:54.925Z,9.656064
2018-08-06T00:46:07.440Z,6.437376
2018-08-06T00:46:19.953Z,8.04672
2018-08-06T00:46:32.465Z,6.437376
2018-08-06T00:46:44.976Z,6.437376
2018-08-06T00:46:57.503Z,6.437376
2018-08-06T00:47:10.006Z,6.437376
2018-08-06T00:47:22.527Z,9.656064
2018-08-06T00:47:35.046Z,6.437376
2018-08-06T00:47:47.560Z,8.04672
2018-08-06T00:48:00.084Z,9.656064
2018-08-06T00:48:12.594Z,9.656064
2018-08-06T00:48:25.107Z,4.828032
2018-08-06T00:48:37.630Z,6.437376
2018-08-06T00:48:50.134Z,8.04672
2018-08-06T00:49:02.882Z,4.828032
2018-08-06T00:49:15.383Z,8.04672
2018-08-06T00:49:27.883Z,8.04672
2018-08-06T00:49:40.413Z,8.04672
2018-08-06T00:49:52.918Z,9.656064
2018-08-06T00:50:05.414Z,6.437376
2018-08-06T00:50:17.938Z,9.656064
2018-08-06T00:50:30.483Z,8.04672
2018-08-06T00:50:42.988Z,8.04672
2018-08-06T00:50:55.492Z,6.437376
2018-08-06T00:51:08.018Z,4.828032
2018-08-06T00:51:20.533Z,3.218688
2018-08-06T00:51:33.127Z,6.437376
2018-08-06T00:51:45.633Z,6.437376
2018-08-06T00:51:58.140Z,8.04672
2018-08-06T00:52:10.669Z,6.437376
2018-08-06T00:52:23.173Z,9.656064
2018-08-06T00:52:35.706Z,8.04672
2018-08-06T00:52:48.225Z,11.265408
2018-08-06T00:53:00.930Z,12.874752
2018-08-06T00:53:13.464Z,8.04672
2018-08-06T00:53:25.987Z,9.656064
2018-08-06T00:53:38.502Z,8.04672
2018-08-06T00:53:51.022Z,9.656064
2018-08-06T00:54:03.539Z,8.04672
2018-08-06T00:54:16.226Z,8.04672
2018-08-06T00:54:28.719Z,9.656064
2018-08-06T00:54:41.231Z,8.04672
2018-08-06T00:54:53.726Z,4.828032
2018-08-06T00:55:06.226Z,6.437376
2018-08-06T00:55:18.650Z,6.437376
2018-08-06T00:55:31.054Z,8.04672
2018-08-06T00:55:43.612Z,6.437376
2018-08-06T00:55:56.129Z,6.437376
2018-08-06T00:56:08.636Z,8.04672
2018-08-06T00:56:21.156Z,12.874752
2018-08-06T00:56:33.720Z,8.04672
2018-08-06T00:56:46.215Z,6.437376
2018-08-06T00:56:59.069Z,6.437376
2018-08-06T00:57:11.574Z,3.218688
2018-08-06T00:57:24.232Z,3.218688
2018-08-06T00:57:36.729Z,11.265408
2018-08-06T00:57:49.236Z,9.656064
2018-08-06T00:58:01.758Z,8.04672
2018-08-06T00:58:14.277Z,4.828032
2018-08-06T00:58:26.804Z,8.04672
2018-08-06T00:58:39.317Z,9.656064
2018-08-06T00:58:51.819Z,6.437376
2018-08-06T00:59:04.328Z,3.218688
2018-08-06T00:59:16.859Z,6.437376
2018-08-06T00:59:29.373Z,3.218688
2018-08-06T00:59:41.885Z,6.437376
2018-08-06T00:59:54.404Z,9.656064
2018-08-06T01:00:06.941Z,11.265408
2018-08-06T01:00:19.453Z,8.04672
2018-08-06T01:00:31.976Z,9.656064
2018-08-06T01:00:44.513Z,11.265408
2018-08-06T01:00:57.051Z,11.265408
2018-08-06T01:01:09.566Z,12.874752
2018-08-06T01:01:22.093Z,12.874752
2018-08-06T01:01:34.626Z,14.484096
2018-08-06T01:01:47.186Z,14.484096
2018-08-06T01:01:59.695Z,12.874752
2018-08-06T01:02:12.198Z,9.656064
2018-08-06T01:02:24.879Z,9.656064
2018-08-06T01:02:37.414Z,9.656064
2018-08-06T01:02:49.920Z,11.265408
2018-08-06T01:03:02.454Z,9.656064
2018-08-06T01:03:14.966Z,6.437376
2018-08-06T01:03:27.532Z,8.04672
2018-08-06T01:03:40.036Z,8.04672
2018-08-06T01:03:52.542Z,9.656064
2018-08-06T01:04:05.051Z,9.656064
2018-08-06T01:04:17.571Z,11.265408
2018-08-06T01:04:30.083Z,12.874752
2018-08-06T01:04:42.602Z,8.04672
2018-08-06T01:04:55.108Z,12.874752
2018-08-06T01:05:07.643Z,12.874752
2018-08-06T01:05:20.165Z,8.04672
2018-08-06T01:05:32.796Z,11.265408
2018-08-06T01:05:45.293Z,11.265408
2018-08-06T01:05:57.804Z,12.874752
2018-08-06T01:06:10.322Z,11.265408
2018-08-06T01:06:22.908Z,9.656064
2018-08-06T01:06:35.415Z,9.656064
2018-08-06T01:06:47.940Z,9.656064
2018-08-06T01:07:00.468Z,6.437376
2018-08-06T01:07:12.971Z,9.656064
2018-08-06T01:07:25.460Z,9.656064
2018-08-06T01:07:38.009Z,8.04672
2018-08-06T01:07:50.538Z,8.04672
2018-08-06T01:08:03.044Z,9.656064
2018-08-06T01:08:15.553Z,6.437376
2018-08-06T01:08:28.080Z,9.656064
2018-08-06T01:08:40.608Z,9.656064
2018-08-06T01:08:53.105Z,8.04672
2018-08-06T01:09:05.626Z,6.437376
2018-08-06T01:09:18.134Z,3.218688
2018-08-06T01:09:30.645Z,3.218688
2018-08-06T01:09:43.144Z,3.218688
2018-08-06T01:09:55.651Z,8.04672
2018-08-06T01:10:08.160Z,8.04672
2018-08-06T01:10:20.704Z,9.656064
2018-08-06T01:10:33.197Z,8.04672
2018-08-06T01:10:45.928Z,11.265408
2018-08-06T01:10:58.447Z,6.437376
2018-08-06T01:11:10.967Z,8.04672
2018-08-06T01:11:23.470Z,6.437376
2018-08-06T01:11:35.978Z,8.04672
2018-08-06T01:11:48.479Z,8.04672
2018-08-06T01:12:01.048Z,9.656064
2018-08-06T01:12:13.558Z,4.828032
2018-08-06T01:12:26.056Z,3.218688
2018-08-06T01:12:38.560Z,3.218688
2018-08-06T01:12:51.095Z,8.04672
2018-08-06T01:13:03.620Z,6.437376
2018-08-06T01:13:16.122Z,9.656064
2018-08-06T01:13:28.626Z,8.04672
2018-08-06T01:13:41.152Z,8.04672
2018-08-06T01:13:53.711Z,8.04672
2018-08-06T01:14:06.225Z,8.04672
2018-08-06T01:14:18.748Z,9.656064
2018-08-06T01:14:31.250Z,3.218688
2018-08-06T01:14:43.756Z,3.218688
2018-08-06T01:14:56.280Z,6.437376
2018-08-06T01:15:08.785Z,3.218688
2018-08-06T01:15:21.320Z,9.656064
2018-08-06T01:15:33.827Z,6.437376
2018-08-06T01:15:46.394Z,3.218688
2018-08-06T01:15:58.918Z,8.04672
2018-08-06T01:16:11.417Z,6.437376
2018-08-06T01:16:23.941Z,1.609344
2018-08-06T01:16:36.458Z,8.04672
2018-08-06T01:16:48.964Z,11.265408
2018-08-06T01:17:01.482Z,14.484096
2018-08-06T01:17:13.991Z,12.874752
2018-08-06T01:17:26.492Z,9.656064
2018-08-06T01:17:39.000Z,4.828032
2018-08-06T01:17:51.507Z,9.656064
2018-08-06T01:18:04.045Z,6.437376
2018-08-06T01:18:16.567Z,9.656064
2018-08-06T01:18:29.085Z,11.265408
2018-08-06T01:18:41.591Z,12.874752
2018-08-06T01:18:54.104Z,9.656064
2018-08-06T01:19:06.633Z,9.656064
2018-08-06T01:19:19.163Z,6.437376
2018-08-06T01:19:31.683Z,9.656064
2018-08-06T01:19:44.236Z,11.265408
2018-08-06T01:19:56.765Z,11.265408
2018-08-06T01:20:09.268Z,12.874752
2018-08-06T01:20:21.816Z,8.04672
2018-08-06T01:20:34.329Z,9.656064
2018-08-06T01:20:47.134Z,9.656064
2018-08-06T01:20:59.669Z,9.656064
2018-08-06T01:21:12.345Z,8.04672
2018-08-06T01:21:24.832Z,8.04672
2018-08-06T01:21:37.323Z,6.437376
2018-08-06T01:21:49.944Z,8.04672
2018-08-06T01:22:02.479Z,8.04672
2018-08-06T01:22:14.987Z,9.656064
2018-08-06T01:22:27.498Z,8.04672
2018-08-06T01:22:40.008Z,11.265408
2018-08-06T01:22:52.540Z,8.04672
2018-08-06T01:23:05.043Z,6.437376
2018-08-06T01:23:17.544Z,8.04672
2018-08-06T01:23:30.042Z,6.437376
2018-08-06T01:23:42.549Z,8.04672
2018-08-06T01:23:55.070Z,4.828032
2018-08-06T01:24:07.615Z,8.04672
2018-08-06T01:24:20.347Z,8.04672
2018-08-06T01:24:32.859Z,3.218688
2018-08-06T01:24:45.392Z,11.265408
2018-08-06T01:24:57.950Z,9.656064
2018-08-06T01:25:10.466Z,8.04672
2018-08-06T01:25:22.987Z,8.04672
2018-08-06T01:25:35.507Z,9.656064
2018-08-06T01:25:48.061Z,8.04672
2018-08-06T01:26:00.615Z,8.04672
2018-08-06T01:26:13.138Z,8.04672
2018-08-06T01:26:25.650Z,6.437376
2018-08-06T01:26:38.163Z,9.656064
2018-08-06T01:26:50.696Z,8.04672
2018-08-06T01:27:03.243Z,14.484096
2018-08-06T01:27:15.810Z,9.656064
2018-08-06T01:27:28.432Z,9.656064
2018-08-06T01:27:40.962Z,8.04672
2018-08-06T01:27:53.486Z,6.437376
2018-08-06T01:28:06.009Z,4.828032
2018-08-06T01:28:18.509Z,6.437376
2018-08-06T01:28:31.051Z,11.265408
2018-08-06T01:28:43.554Z,6.437376
2018-08-06T01:28:56.093Z,9.656064
2018-08-06T01:29:08.590Z,8.04672
2018-08-06T01:29:21.103Z,9.656064
2018-08-06T01:29:33.615Z,6.437376
2018-08-06T01:29:46.120Z,4.828032
2018-08-06T01:29:58.805Z,8.04672
2018-08-06T01:30:11.322Z,9.656064
2018-08-06T01:30:24.109Z,8.04672
2018-08-06T01:30:36.629Z,6.437376
2018-08-06T01:30:49.145Z,9.656064
2018-08-06T01:31:01.680Z,11.265408
2018-08-06T01:31:14.204Z,6.437376
2018-08-06T01:31:26.693Z,6.437376
2018-08-06T01:31:39.210Z,3.218688
2018-08-06T01:31:51.707Z,6.437376
2018-08-06T01:32:04.226Z,8.04672
2018-08-06T01:32:16.737Z,8.04672
2018-08-06T01:32:29.238Z,6.437376
2018-08-06T01:32:41.745Z,6.437376
2018-08-06T01:32:54.303Z,3.218688
2018-08-06T01:33:06.848Z,3.218688
2018-08-06T01:33:19.362Z,3.218688
2018-08-06T01:33:31.860Z,11.265408
2018-08-06T01:33:44.396Z,12.874752
2018-08-06T01:33:56.886Z,11.265408
2018-08-06T01:34:09.404Z,8.04672
2018-08-06T01:34:21.911Z,3.218688
2018-08-06T01:34:34.425Z,3.218688
2018-08-06T01:34:46.940Z,6.437376
2018-08-06T01:34:59.456Z,3.218688
2018-08-06T01:35:11.976Z,3.218688
2018-08-06T01:35:24.528Z,3.218688
2018-08-06T01:35:37.030Z,1.609344
2018-08-06T01:35:49.528Z,1.609344
2018-08-06T01:36:02.064Z,1.609344
2018-08-06T01:36:14.571Z,3.218688
2018-08-06T01:36:27.170Z,8.04672
2018-08-06T01:36:39.670Z,8.04672
2018-08-06T01:36:52.198Z,9.656064
2018-08-06T01:37:04.718Z,8.04672
2018-08-06T01:37:17.223Z,3.218688
2018-08-06T01:37:29.715Z,8.04672
2018-08-06T01:37:42.230Z,8.04672
2018-08-06T01:37:54.739Z,6.437376
2018-08-06T01:38:07.252Z,11.265408
2018-08-06T01:38:19.766Z,11.265408
2018-08-06T01:38:32.296Z,9.656064
2018-08-06T01:38:44.803Z,8.04672
2018-08-06T01:38:57.294Z,8.04672
2018-08-06T01:39:09.865Z,8.04672
2018-08-06T01:39:22.386Z,9.656064
2018-08-06T01:39:35.043Z,9.656064
2018-08-06T01:39:47.548Z,12.874752
2018-08-06T01:40:00.060Z,14.484096
2018-08-06T01:40:12.636Z,11.265408
2018-08-06T01:40:25.153Z,11.265408
2018-08-06T01:40:37.662Z,16.09344
2018-08-06T01:40:50.228Z,12.874752
2018-08-06T01:41:02.731Z,11.265408
2018-08-06T01:41:15.233Z,11.265408
2018-08-06T01:41:27.739Z,9.656064
2018-08-06T01:41:40.291Z,9.656064
2018-08-06T01:41:52.794Z,9.656064
2018-08-06T01:42:05.315Z,8.04672
2018-08-06T01:42:17.842Z,9.656064
2018-08-06T01:42:30.361Z,9.656064
2018-08-06T01:42:42.871Z,4.828032
2018-08-06T01:42:55.381Z,6.437376
2018-08-06T01:43:07.937Z,6.437376
2018-08-06T01:43:20.447Z,3.218688
2018-08-06T01:43:32.949Z,6.437376
2018-08-06T01:43:45.469Z,4.828032
2018-08-06T01:43:57.987Z,3.218688
2018-08-06T01:44:10.555Z,6.437376
2018-08-06T01:44:23.082Z,8.04672
2018-08-06T01:44:35.619Z,6.437376
2018-08-06T01:44:48.151Z,4.828032
2018-08-06T01:45:00.664Z,8.04672
2018-08-06T01:45:13.169Z,6.437376
2018-08-06T01:45:25.704Z,8.04672
2018-08-06T01:45:38.287Z,6.437376
2018-08-06T01:45:51.720Z,14.484096
2018-08-06T01:46:04.569Z,12.874752
2018-08-06T01:46:17.150Z,11.265408
2018-08-06T01:46:29.793Z,11.265408
2018-08-06T01:46:42.295Z,6.437376
2018-08-06T01:46:54.801Z,8.04672
2018-08-06T01:47:07.321Z,6.437376
2018-08-06T01:47:19.838Z,6.437376
2018-08-06T01:47:32.350Z,9.656064
2018-08-06T01:47:44.881Z,6.437376
2018-08-06T01:47:57.387Z,8.04672
2018-08-06T01:48:09.912Z,6.437376
2018-08-06T01:48:22.421Z,11.265408
2018-08-06T01:48:34.925Z,9.656064
2018-08-06T01:48:47.469Z,9.656064
2018-08-06T01:49:00.058Z,11.265408
2018-08-06T01:49:12.590Z,11.265408
2018-08-06T01:49:25.104Z,9.656064
2018-08-06T01:49:37.618Z,6.437376
2018-08-06T01:49:50.126Z,9.656064
2018-08-06T01:50:02.628Z,8.04672
2018-08-06T01:50:15.133Z,9.656064
2018-08-06T01:50:27.688Z,9.656064
2018-08-06T01:50:40.170Z,8.04672
2018-08-06T01:50:52.745Z,11.265408
2018-08-06T01:51:05.254Z,8.04672
2018-08-06T01:51:17.766Z,9.656064
2018-08-06T01:51:30.404Z,8.04672
2018-08-06T01:51:42.912Z,6.437376
2018-08-06T01:51:55.448Z,9.656064
2018-08-06T01:52:08.007Z,8.04672
2018-08-06T01:52:20.551Z,6.437376
2018-08-06T01:52:33.078Z,3.218688
2018-08-06T01:52:45.616Z,9.656064
2018-08-06T01:52:58.159Z,9.656064
2018-08-06T01:53:10.658Z,9.656064
2018-08-06T01:53:23.182Z,8.04672
2018-08-06T01:53:35.714Z,6.437376
2018-08-06T01:53:48.221Z,6.437376
2018-08-06T01:54:00.725Z,9.656064
2018-08-06T01:54:13.227Z,9.656064
2018-08-06T01:54:25.739Z,6.437376
2018-08-06T01:54:38.263Z,4.828032
2018-08-06T01:54:50.778Z,3.218688
2018-08-06T01:55:03.287Z,6.437376
2018-08-06T01:55:15.799Z,8.04672
2018-08-06T01:55:28.363Z,8.04672
2018-08-06T01:55:40.889Z,8.04672
2018-08-06T01:55:53.429Z,6.437376
2018-08-06T01:56:05.937Z,6.437376
2018-08-06T01:56:18.467Z,6.437376
2018-08-06T01:56:31.087Z,3.218688
2018-08-06T01:56:43.628Z,6.437376
2018-08-06T01:56:56.140Z,6.437376
2018-08-06T01:57:08.644Z,6.437376
2018-08-06T01:57:21.165Z,1.609344
2018-08-06T01:57:33.686Z,3.218688
2018-08-06T01:57:46.211Z,1.609344
2018-08-06T01:57:58.715Z,1.609344
2018-08-06T01:58:11.222Z,3.218688
2018-08-06T01:58:23.747Z,6.437376
2018-08-06T01:58:36.238Z,8.04672
2018-08-06T01:58:48.733Z,6.437376
2018-08-06T01:59:01.248Z,9.656064
2018-08-06T01:59:13.746Z,8.04672
2018-08-06T01:59:31.438Z,6.437376
2018-08-06T01:59:43.957Z,3.218688
2018-08-06T01:59:56.466Z,4.828032
2018-08-06T02:00:09.010Z,6.437376
2018-08-06T02:00:21.542Z,6.437376
2018-08-06T02:00:34.096Z,6.437376
2018-08-06T02:00:46.632Z,6.437376
2018-08-06T02:00:59.176Z,4.828032
2018-08-06T02:01:11.697Z,3.218688
2018-08-06T02:01:24.211Z,6.437376
2018-08-06T02:01:36.776Z,8.04672
2018-08-06T02:01:49.324Z,8.04672
2018-08-06T02:02:01.854Z,8.04672
2018-08-06T02:02:14.369Z,6.437376
2018-08-06T02:02:27.010Z,6.437376
2018-08-06T02:02:39.539Z,4.828032
2018-08-06T02:02:52.038Z,8.04672
2018-08-06T02:03:04.539Z,6.437376
2018-08-06T02:03:17.037Z,6.437376
2018-08-06T02:03:29.544Z,6.437376
2018-08-06T02:03:42.042Z,9.656064
2018-08-06T02:03:54.546Z,9.656064
2018-08-06T02:04:07.055Z,9.656064
2018-08-06T02:04:19.567Z,9.656064
2018-08-06T02:04:32.089Z,8.04672
2018-08-06T02:04:44.616Z,8.04672
2018-08-06T02:04:57.124Z,8.04672
2018-08-06T02:05:09.685Z,6.437376
2018-08-06T02:05:22.320Z,4.828032
2018-08-06T02:05:34.837Z,6.437376
2018-08-06T02:05:47.368Z,9.656064
2018-08-06T02:05:59.928Z,9.656064
2018-08-06T02:06:12.447Z,9.656064
2018-08-06T02:06:24.956Z,6.437376
2018-08-06T02:06:37.452Z,8.04672
2018-08-06T02:06:49.977Z,8.04672
2018-08-06T02:07:02.505Z,6.437376
2018-08-06T02:07:15.003Z,8.04672
2018-08-06T02:07:27.550Z,8.04672
2018-08-06T02:07:40.081Z,9.656064
2018-08-06T02:07:52.605Z,6.437376
2018-08-06T02:08:05.126Z,1.609344
2018-08-06T02:08:17.636Z,1.609344
2018-08-06T02:08:30.152Z,3.218688
2018-08-06T02:08:42.672Z,3.218688
2018-08-06T02:08:55.187Z,1.609344
2018-08-06T02:09:07.726Z,3.218688
2018-08-06T02:09:20.281Z,6.437376
2018-08-06T02:09:32.778Z,8.04672
2018-08-06T02:09:45.287Z,6.437376
2018-08-06T02:09:57.791Z,3.218688
2018-08-06T02:10:10.305Z,3.218688
2018-08-06T02:10:22.885Z,6.437376
2018-08-06T02:10:35.408Z,3.218688
2018-08-06T02:10:48.085Z,8.04672
2018-08-06T02:11:00.601Z,4.828032
2018-08-06T02:11:13.136Z,9.656064
2018-08-06T02:11:25.647Z,9.656064
2018-08-06T02:11:38.164Z,8.04672
2018-08-06T02:11:50.684Z,8.04672
2018-08-06T02:12:03.198Z,8.04672
2018-08-06T02:12:15.707Z,9.656064
2018-08-06T02:12:28.248Z,8.04672
2018-08-06T02:12:40.758Z,6.437376
2018-08-06T02:12:53.292Z,8.04672
2018-08-06T02:13:05.829Z,6.437376
2018-08-06T02:13:18.340Z,6.437376
2018-08-06T02:13:30.839Z,8.04672
2018-08-06T02:13:43.348Z,9.656064
2018-08-06T02:13:55.875Z,6.437376
2018-08-06T02:14:08.415Z,1.609344
2018-08-06T02:14:20.913Z,8.04672
2018-08-06T02:14:33.425Z,6.437376
2018-08-06T02:14:45.941Z,6.437376
2018-08-06T02:14:58.501Z,8.04672
2018-08-06T02:15:11.036Z,6.437376
2018-08-06T02:15:23.569Z,8.04672
2018-08-06T02:15:36.067Z,8.04672
2018-08-06T02:15:48.597Z,8.04672
2018-08-06T02:16:01.107Z,8.04672
2018-08-06T02:16:13.626Z,6.437376
2018-08-06T02:16:26.169Z,6.437376
2018-08-06T02:16:38.716Z,9.656064
2018-08-06T02:16:51.247Z,8.04672
2018-08-06T02:17:03.772Z,6.437376
2018-08-06T02:17:16.282Z,6.437376
2018-08-06T02:17:28.806Z,6.437376
2018-08-06T02:17:41.307Z,8.04672
2018-08-06T02:17:53.854Z,6.437376
2018-08-06T02:18:06.378Z,8.04672
2018-08-06T02:18:18.899Z,6.437376
2018-08-06T02:18:31.399Z,6.437376
2018-08-06T02:18:43.896Z,4.828032
2018-08-06T02:18:56.420Z,6.437376
2018-08-06T02:19:08.935Z,9.656064
2018-08-06T02:19:21.452Z,4.828032
2018-08-06T02:19:33.971Z,4.828032
2018-08-06T02:19:46.493Z,6.437376
2018-08-06T02:19:59.013Z,6.437376
2018-08-06T02:20:11.523Z,3.218688
2018-08-06T02:20:24.088Z,3.218688
2018-08-06T02:20:36.603Z,3.218688
2018-08-06T02:20:49.248Z,3.218688
2018-08-06T02:21:01.792Z,8.04672
2018-08-06T02:21:14.474Z,6.437376
2018-08-06T02:21:26.980Z,6.437376
2018-08-06T02:21:39.489Z,8.04672
2018-08-06T02:21:52.175Z,8.04672
2018-08-06T02:22:04.684Z,8.04672
2018-08-06T02:22:17.199Z,9.656064
2018-08-06T02:22:29.750Z,8.04672
2018-08-06T02:22:42.255Z,9.656064
2018-08-06T02:22:54.751Z,8.04672
2018-08-06T02:23:07.292Z,6.437376
2018-08-06T02:23:19.792Z,4.828032
2018-08-06T02:23:32.299Z,1.609344
2018-08-06T02:23:44.793Z,3.218688
2018-08-06T02:23:57.301Z,3.218688
2018-08-06T02:24:09.821Z,3.218688
2018-08-06T02:24:22.334Z,6.437376
2018-08-06T02:24:34.902Z,6.437376
2018-08-06T02:24:47.447Z,3.218688
2018-08-06T02:24:59.975Z,8.04672
2018-08-06T02:25:12.548Z,6.437376
2018-08-06T02:25:25.064Z,3.218688
2018-08-06T02:25:37.579Z,1.609344
2018-08-06T02:25:50.109Z,6.437376
2018-08-06T02:26:02.634Z,3.218688
2018-08-06T02:26:15.141Z,3.218688
2018-08-06T02:26:27.660Z,4.828032
2018-08-06T02:26:40.195Z,6.437376
2018-08-06T02:26:52.720Z,3.218688
2018-08-06T02:27:05.240Z,6.437376
2018-08-06T02:27:17.758Z,1.609344
2018-08-06T02:27:30.258Z,1.609344
2018-08-06T02:27:42.777Z,1.609344
2018-08-06T02:27:55.281Z,3.218688